sensor_id;sensor_type;location;lat;lon;timestamp;P1;durP1;ratioP1;P2;durP2;ratioP2
60372;SDS011;46216;52.220;5.134;2022-10-23T00:00:16;12.40;;;8.82;;
60372;SDS011;46216;52.220;5.134;2022-10-23T00:02:42;16.67;;;9.73;;
60372;SDS011;46216;52.220;5.134;2022-10-23T00:05:07;15.23;;;9.65;;
60372;SDS011;46216;52.220;5.134;2022-10-23T00:07:33;16.55;;;10.25;;
60372;SDS011;46216;52.220;5.134;2022-10-23T00:09:58;14.10;;;9.18;;
60372;SDS011;46216;52.220;5.134;2022-10-23T00:12:23;17.75;;;9.30;;
60372;SDS011;46216;52.220;5.134;2022-10-23T00:14:49;16.02;;;9.63;;
60372;SDS011;46216;52.220;5.134;2022-10-23T00:17:14;14.18;;;9.45;;
60372;SDS011;46216;52.220;5.134;2022-10-23T00:19:39;14.65;;;9.13;;
60372;SDS011;46216;52.220;5.134;2022-10-23T00:22:05;16.20;;;9.65;;
60372;SDS011;46216;52.220;5.134;2022-10-23T00:24:32;13.68;;;9.27;;
60372;SDS011;46216;52.220;5.134;2022-10-23T00:26:57;15.40;;;9.15;;
60372;SDS011;46216;52.220;5.134;2022-10-23T00:29:22;17.85;;;9.52;;
60372;SDS011;46216;52.220;5.134;2022-10-23T00:31:48;13.63;;;9.20;;
60372;SDS011;46216;52.220;5.134;2022-10-23T00:34:13;15.88;;;9.35;;
60372;SDS011;46216;52.220;5.134;2022-10-23T00:36:38;14.98;;;9.68;;
60372;SDS011;46216;52.220;5.134;2022-10-23T00:39:04;15.77;;;9.18;;
60372;SDS011;46216;52.220;5.134;2022-10-23T00:41:30;14.93;;;10.00;;
60372;SDS011;46216;52.220;5.134;2022-10-23T00:44:01;15.18;;;9.52;;
60372;SDS011;46216;52.220;5.134;2022-10-23T00:46:30;14.57;;;9.73;;
60372;SDS011;46216;52.220;5.134;2022-10-23T00:48:56;18.90;;;10.02;;
60372;SDS011;46216;52.220;5.134;2022-10-23T00:51:23;16.77;;;9.63;;
60372;SDS011;46216;52.220;5.134;2022-10-23T00:53:51;15.38;;;9.23;;
60372;SDS011;46216;52.220;5.134;2022-10-23T00:56:20;15.73;;;9.85;;
60372;SDS011;46216;52.220;5.134;2022-10-23T00:58:47;16.02;;;9.38;;
60372;SDS011;46216;52.220;5.134;2022-10-23T01:01:14;15.63;;;10.00;;
60372;SDS011;46216;52.220;5.134;2022-10-23T01:03:42;19.27;;;10.13;;
60372;SDS011;46216;52.220;5.134;2022-10-23T01:09:25;19.35;;;9.45;;
60372;SDS011;46216;52.220;5.134;2022-10-23T01:11:57;17.33;;;9.45;;
60372;SDS011;46216;52.220;5.134;2022-10-23T01:14:35;20.20;;;10.32;;
60372;SDS011;46216;52.220;5.134;2022-10-23T01:20:00;13.15;;;9.43;;
60372;SDS011;46216;52.220;5.134;2022-10-23T01:28:27;13.57;;;9.48;;
60372;SDS011;46216;52.220;5.134;2022-10-23T01:30:56;11.85;;;8.68;;
60372;SDS011;46216;52.220;5.134;2022-10-23T01:33:24;14.98;;;9.40;;
60372;SDS011;46216;52.220;5.134;2022-10-23T01:36:01;17.02;;;9.13;;
60372;SDS011;46216;52.220;5.134;2022-10-23T01:38:43;14.13;;;8.75;;
60372;SDS011;46216;52.220;5.134;2022-10-23T01:41:22;19.75;;;9.00;;
60372;SDS011;46216;52.220;5.134;2022-10-23T01:43:55;15.13;;;9.02;;
60372;SDS011;46216;52.220;5.134;2022-10-23T01:46:20;14.07;;;9.13;;
60372;SDS011;46216;52.220;5.134;2022-10-23T01:48:48;18.70;;;9.38;;
60372;SDS011;46216;52.220;5.134;2022-10-23T01:51:17;14.13;;;9.40;;
60372;SDS011;46216;52.220;5.134;2022-10-23T01:53:45;16.70;;;9.07;;
60372;SDS011;46216;52.220;5.134;2022-10-23T01:56:18;14.93;;;9.05;;
60372;SDS011;46216;52.220;5.134;2022-10-23T01:58:47;18.30;;;8.90;;
60372;SDS011;46216;52.220;5.134;2022-10-23T02:01:15;13.93;;;9.00;;
60372;SDS011;46216;52.220;5.134;2022-10-23T02:03:44;13.05;;;8.40;;
60372;SDS011;46216;52.220;5.134;2022-10-23T02:06:12;14.07;;;8.57;;
60372;SDS011;46216;52.220;5.134;2022-10-23T02:08:38;17.30;;;9.20;;
60372;SDS011;46216;52.220;5.134;2022-10-23T02:11:07;14.57;;;8.13;;
60372;SDS011;46216;52.220;5.134;2022-10-23T02:16:38;18.33;;;9.65;;
60372;SDS011;46216;52.220;5.134;2022-10-23T02:27:37;14.07;;;9.23;;
60372;SDS011;46216;52.220;5.134;2022-10-23T02:30:09;15.43;;;8.95;;
60372;SDS011;46216;52.220;5.134;2022-10-23T02:32:37;17.42;;;9.32;;
60372;SDS011;46216;52.220;5.134;2022-10-23T02:35:06;14.77;;;8.48;;
60372;SDS011;46216;52.220;5.134;2022-10-23T02:37:32;12.98;;;9.57;;
60372;SDS011;46216;52.220;5.134;2022-10-23T02:39:58;15.63;;;9.57;;
60372;SDS011;46216;52.220;5.134;2022-10-23T02:42:49;15.23;;;9.40;;
60372;SDS011;46216;52.220;5.134;2022-10-23T02:45:39;15.70;;;9.00;;
60372;SDS011;46216;52.220;5.134;2022-10-23T02:48:21;14.02;;;8.73;;
60372;SDS011;46216;52.220;5.134;2022-10-23T02:51:02;14.40;;;8.55;;
60372;SDS011;46216;52.220;5.134;2022-10-23T02:53:41;14.10;;;9.15;;
60372;SDS011;46216;52.220;5.134;2022-10-23T02:59:08;13.20;;;8.90;;
60372;SDS011;46216;52.220;5.134;2022-10-23T03:01:42;15.30;;;9.80;;
60372;SDS011;46216;52.220;5.134;2022-10-23T03:04:14;16.40;;;9.60;;
60372;SDS011;46216;52.220;5.134;2022-10-23T03:06:41;13.73;;;9.20;;
60372;SDS011;46216;52.220;5.134;2022-10-23T03:09:07;17.67;;;9.57;;
60372;SDS011;46216;52.220;5.134;2022-10-23T03:11:33;13.23;;;9.60;;
60372;SDS011;46216;52.220;5.134;2022-10-23T03:14:00;15.52;;;8.63;;
60372;SDS011;46216;52.220;5.134;2022-10-23T03:16:25;16.15;;;9.52;;
60372;SDS011;46216;52.220;5.134;2022-10-23T03:18:51;16.33;;;9.63;;
60372;SDS011;46216;52.220;5.134;2022-10-23T03:21:17;14.75;;;10.02;;
60372;SDS011;46216;52.220;5.134;2022-10-23T03:23:42;14.75;;;9.98;;
60372;SDS011;46216;52.220;5.134;2022-10-23T03:26:08;12.73;;;9.20;;
60372;SDS011;46216;52.220;5.134;2022-10-23T03:28:33;13.07;;;8.80;;
60372;SDS011;46216;52.220;5.134;2022-10-23T03:30:59;13.85;;;9.65;;
60372;SDS011;46216;52.220;5.134;2022-10-23T03:33:26;15.63;;;9.05;;
60372;SDS011;46216;52.220;5.134;2022-10-23T03:35:52;15.98;;;9.90;;
60372;SDS011;46216;52.220;5.134;2022-10-23T03:38:17;15.95;;;9.50;;
60372;SDS011;46216;52.220;5.134;2022-10-23T03:40:42;19.67;;;9.80;;
60372;SDS011;46216;52.220;5.134;2022-10-23T03:43:08;14.93;;;9.52;;
60372;SDS011;46216;52.220;5.134;2022-10-23T03:45:33;16.77;;;9.45;;
60372;SDS011;46216;52.220;5.134;2022-10-23T03:48:01;16.70;;;9.60;;
60372;SDS011;46216;52.220;5.134;2022-10-23T03:50:26;16.25;;;9.07;;
60372;SDS011;46216;52.220;5.134;2022-10-23T03:52:51;13.70;;;9.23;;
60372;SDS011;46216;52.220;5.134;2022-10-23T03:55:17;11.35;;;8.70;;
60372;SDS011;46216;52.220;5.134;2022-10-23T03:57:42;17.88;;;9.82;;
60372;SDS011;46216;52.220;5.134;2022-10-23T04:00:07;20.63;;;10.07;;
60372;SDS011;46216;52.220;5.134;2022-10-23T04:02:33;17.70;;;9.50;;
60372;SDS011;46216;52.220;5.134;2022-10-23T04:04:58;15.27;;;9.15;;
60372;SDS011;46216;52.220;5.134;2022-10-23T04:07:24;12.00;;;8.98;;
60372;SDS011;46216;52.220;5.134;2022-10-23T04:09:49;16.20;;;9.23;;
60372;SDS011;46216;52.220;5.134;2022-10-23T04:12:15;12.10;;;8.48;;
60372;SDS011;46216;52.220;5.134;2022-10-23T04:14:41;13.25;;;8.45;;
60372;SDS011;46216;52.220;5.134;2022-10-23T04:17:06;16.23;;;9.10;;
60372;SDS011;46216;52.220;5.134;2022-10-23T04:19:31;11.80;;;9.02;;
60372;SDS011;46216;52.220;5.134;2022-10-23T04:21:57;16.83;;;8.70;;
60372;SDS011;46216;52.220;5.134;2022-10-23T04:24:23;11.20;;;9.70;;
60372;SDS011;46216;52.220;5.134;2022-10-23T04:26:49;13.45;;;9.43;;
60372;SDS011;46216;52.220;5.134;2022-10-23T04:29:14;14.65;;;9.60;;
60372;SDS011;46216;52.220;5.134;2022-10-23T04:31:39;12.77;;;9.68;;
60372;SDS011;46216;52.220;5.134;2022-10-23T04:34:05;15.00;;;9.48;;
60372;SDS011;46216;52.220;5.134;2022-10-23T04:36:31;12.85;;;9.43;;
60372;SDS011;46216;52.220;5.134;2022-10-23T04:38:56;16.50;;;9.10;;
60372;SDS011;46216;52.220;5.134;2022-10-23T04:41:22;15.13;;;8.98;;
60372;SDS011;46216;52.220;5.134;2022-10-23T04:43:48;12.52;;;8.88;;
60372;SDS011;46216;52.220;5.134;2022-10-23T04:46:13;14.10;;;8.60;;
60372;SDS011;46216;52.220;5.134;2022-10-23T04:48:38;14.70;;;9.45;;
60372;SDS011;46216;52.220;5.134;2022-10-23T04:51:04;15.70;;;9.63;;
60372;SDS011;46216;52.220;5.134;2022-10-23T04:53:31;13.88;;;9.10;;
60372;SDS011;46216;52.220;5.134;2022-10-23T04:55:57;14.98;;;8.88;;
60372;SDS011;46216;52.220;5.134;2022-10-23T04:58:24;12.90;;;8.95;;
60372;SDS011;46216;52.220;5.134;2022-10-23T05:00:50;17.48;;;8.73;;
60372;SDS011;46216;52.220;5.134;2022-10-23T05:03:16;17.15;;;9.52;;
60372;SDS011;46216;52.220;5.134;2022-10-23T05:05:43;14.20;;;9.10;;
60372;SDS011;46216;52.220;5.134;2022-10-23T05:08:09;14.30;;;9.60;;
60372;SDS011;46216;52.220;5.134;2022-10-23T05:10:35;18.23;;;9.75;;
60372;SDS011;46216;52.220;5.134;2022-10-23T05:13:00;15.55;;;9.60;;
60372;SDS011;46216;52.220;5.134;2022-10-23T05:15:26;17.30;;;9.55;;
60372;SDS011;46216;52.220;5.134;2022-10-23T05:17:52;16.70;;;9.15;;
60372;SDS011;46216;52.220;5.134;2022-10-23T05:20:22;14.13;;;8.98;;
60372;SDS011;46216;52.220;5.134;2022-10-23T05:22:50;14.38;;;8.73;;
60372;SDS011;46216;52.220;5.134;2022-10-23T05:25:18;14.88;;;8.90;;
60372;SDS011;46216;52.220;5.134;2022-10-23T05:27:43;12.20;;;8.50;;
60372;SDS011;46216;52.220;5.134;2022-10-23T05:30:09;12.05;;;8.48;;
60372;SDS011;46216;52.220;5.134;2022-10-23T05:32:35;12.65;;;8.63;;
60372;SDS011;46216;52.220;5.134;2022-10-23T05:35:05;11.82;;;8.43;;
60372;SDS011;46216;52.220;5.134;2022-10-23T05:37:34;14.30;;;8.80;;
60372;SDS011;46216;52.220;5.134;2022-10-23T05:40:05;13.93;;;8.07;;
60372;SDS011;46216;52.220;5.134;2022-10-23T05:42:32;15.73;;;9.00;;
60372;SDS011;46216;52.220;5.134;2022-10-23T05:44:57;13.10;;;8.05;;
60372;SDS011;46216;52.220;5.134;2022-10-23T05:47:23;17.17;;;8.98;;
60372;SDS011;46216;52.220;5.134;2022-10-23T05:49:48;13.10;;;7.68;;
60372;SDS011;46216;52.220;5.134;2022-10-23T05:52:13;12.60;;;8.20;;
60372;SDS011;46216;52.220;5.134;2022-10-23T05:54:39;14.77;;;7.57;;
60372;SDS011;46216;52.220;5.134;2022-10-23T05:57:04;11.50;;;7.70;;
60372;SDS011;46216;52.220;5.134;2022-10-23T05:59:29;12.05;;;8.05;;
60372;SDS011;46216;52.220;5.134;2022-10-23T06:01:56;11.40;;;7.60;;
60372;SDS011;46216;52.220;5.134;2022-10-23T06:04:21;15.05;;;7.72;;
60372;SDS011;46216;52.220;5.134;2022-10-23T06:06:46;11.75;;;7.88;;
60372;SDS011;46216;52.220;5.134;2022-10-23T06:09:12;11.13;;;7.57;;
60372;SDS011;46216;52.220;5.134;2022-10-23T06:11:38;13.57;;;8.18;;
60372;SDS011;46216;52.220;5.134;2022-10-23T06:14:04;11.77;;;7.57;;
60372;SDS011;46216;52.220;5.134;2022-10-23T06:16:31;12.88;;;7.32;;
60372;SDS011;46216;52.220;5.134;2022-10-23T06:18:56;10.65;;;7.07;;
60372;SDS011;46216;52.220;5.134;2022-10-23T06:21:21;17.15;;;7.53;;
60372;SDS011;46216;52.220;5.134;2022-10-23T06:23:47;13.15;;;7.40;;
60372;SDS011;46216;52.220;5.134;2022-10-23T06:26:13;11.35;;;7.95;;
60372;SDS011;46216;52.220;5.134;2022-10-23T06:28:40;10.02;;;7.57;;
60372;SDS011;46216;52.220;5.134;2022-10-23T06:31:06;12.43;;;6.70;;
60372;SDS011;46216;52.220;5.134;2022-10-23T06:33:33;14.63;;;7.10;;
60372;SDS011;46216;52.220;5.134;2022-10-23T06:35:59;18.48;;;7.78;;
60372;SDS011;46216;52.220;5.134;2022-10-23T06:38:24;11.48;;;6.80;;
60372;SDS011;46216;52.220;5.134;2022-10-23T06:40:53;14.90;;;6.63;;
60372;SDS011;46216;52.220;5.134;2022-10-23T06:43:20;15.38;;;6.85;;
60372;SDS011;46216;52.220;5.134;2022-10-23T06:45:46;10.95;;;6.20;;
60372;SDS011;46216;52.220;5.134;2022-10-23T06:48:12;8.88;;;6.00;;
60372;SDS011;46216;52.220;5.134;2022-10-23T06:50:38;13.20;;;5.72;;
60372;SDS011;46216;52.220;5.134;2022-10-23T06:53:04;9.40;;;5.30;;
60372;SDS011;46216;52.220;5.134;2022-10-23T06:55:30;9.50;;;5.70;;
60372;SDS011;46216;52.220;5.134;2022-10-23T06:57:57;12.00;;;6.07;;
60372;SDS011;46216;52.220;5.134;2022-10-23T07:00:23;10.52;;;6.68;;
60372;SDS011;46216;52.220;5.134;2022-10-23T07:02:49;12.48;;;6.03;;
60372;SDS011;46216;52.220;5.134;2022-10-23T07:05:15;10.50;;;5.75;;
60372;SDS011;46216;52.220;5.134;2022-10-23T07:07:40;8.55;;;6.07;;
60372;SDS011;46216;52.220;5.134;2022-10-23T07:10:06;13.35;;;6.22;;
60372;SDS011;46216;52.220;5.134;2022-10-23T07:12:31;11.38;;;6.63;;
60372;SDS011;46216;52.220;5.134;2022-10-23T07:14:57;10.07;;;6.05;;
60372;SDS011;46216;52.220;5.134;2022-10-23T07:17:22;10.05;;;6.22;;
60372;SDS011;46216;52.220;5.134;2022-10-23T07:19:47;11.93;;;6.45;;
60372;SDS011;46216;52.220;5.134;2022-10-23T07:22:13;14.10;;;6.70;;
60372;SDS011;46216;52.220;5.134;2022-10-23T07:24:38;12.95;;;6.55;;
60372;SDS011;46216;52.220;5.134;2022-10-23T07:27:04;14.52;;;7.38;;
60372;SDS011;46216;52.220;5.134;2022-10-23T07:29:30;11.38;;;6.45;;
60372;SDS011;46216;52.220;5.134;2022-10-23T07:31:56;11.88;;;6.53;;
60372;SDS011;46216;52.220;5.134;2022-10-23T07:34:24;13.18;;;6.78;;
60372;SDS011;46216;52.220;5.134;2022-10-23T07:36:51;11.00;;;6.28;;
60372;SDS011;46216;52.220;5.134;2022-10-23T07:39:16;11.07;;;6.55;;
60372;SDS011;46216;52.220;5.134;2022-10-23T07:41:41;11.63;;;6.35;;
60372;SDS011;46216;52.220;5.134;2022-10-23T07:44:06;14.00;;;7.10;;
60372;SDS011;46216;52.220;5.134;2022-10-23T07:46:32;11.45;;;6.70;;
60372;SDS011;46216;52.220;5.134;2022-10-23T07:48:57;10.10;;;7.07;;
60372;SDS011;46216;52.220;5.134;2022-10-23T07:51:22;11.70;;;6.70;;
60372;SDS011;46216;52.220;5.134;2022-10-23T07:53:48;9.80;;;6.75;;
60372;SDS011;46216;52.220;5.134;2022-10-23T07:56:14;9.05;;;6.50;;
60372;SDS011;46216;52.220;5.134;2022-10-23T07:58:41;11.23;;;7.10;;
60372;SDS011;46216;52.220;5.134;2022-10-23T08:01:17;9.48;;;6.70;;
60372;SDS011;46216;52.220;5.134;2022-10-23T08:03:44;12.73;;;6.65;;
60372;SDS011;46216;52.220;5.134;2022-10-23T08:06:10;10.00;;;6.00;;
60372;SDS011;46216;52.220;5.134;2022-10-23T08:08:35;11.82;;;6.43;;
60372;SDS011;46216;52.220;5.134;2022-10-23T08:11:01;11.82;;;6.35;;
60372;SDS011;46216;52.220;5.134;2022-10-23T08:13:26;9.75;;;6.60;;
60372;SDS011;46216;52.220;5.134;2022-10-23T08:15:51;11.02;;;6.10;;
60372;SDS011;46216;52.220;5.134;2022-10-23T08:18:17;8.68;;;6.45;;
60372;SDS011;46216;52.220;5.134;2022-10-23T08:20:43;8.88;;;5.55;;
60372;SDS011;46216;52.220;5.134;2022-10-23T08:23:10;9.35;;;5.97;;
60372;SDS011;46216;52.220;5.134;2022-10-23T08:25:40;11.27;;;6.47;;
60372;SDS011;46216;52.220;5.134;2022-10-23T08:28:06;9.48;;;5.78;;
60372;SDS011;46216;52.220;5.134;2022-10-23T08:30:33;11.90;;;5.90;;
60372;SDS011;46216;52.220;5.134;2022-10-23T08:32:59;12.05;;;6.43;;
60372;SDS011;46216;52.220;5.134;2022-10-23T08:35:27;12.88;;;6.70;;
60372;SDS011;46216;52.220;5.134;2022-10-23T08:37:52;12.05;;;6.20;;
60372;SDS011;46216;52.220;5.134;2022-10-23T08:40:19;9.35;;;6.07;;
60372;SDS011;46216;52.220;5.134;2022-10-23T08:42:50;12.88;;;6.30;;
60372;SDS011;46216;52.220;5.134;2022-10-23T08:48:32;12.20;;;6.22;;
60372;SDS011;46216;52.220;5.134;2022-10-23T08:51:06;9.02;;;5.53;;
60372;SDS011;46216;52.220;5.134;2022-10-23T08:54:25;13.27;;;5.50;;
60372;SDS011;46216;52.220;5.134;2022-10-23T08:56:38;10.90;;;5.55;;
60372;SDS011;46216;52.220;5.134;2022-10-23T08:59:21;7.75;;;5.40;;
60372;SDS011;46216;52.220;5.134;2022-10-23T09:02:00;10.30;;;5.35;;
60372;SDS011;46216;52.220;5.134;2022-10-23T09:04:28;8.48;;;5.30;;
60372;SDS011;46216;52.220;5.134;2022-10-23T09:06:59;13.32;;;5.28;;
60372;SDS011;46216;52.220;5.134;2022-10-23T09:12:24;7.45;;;5.28;;
60372;SDS011;46216;52.220;5.134;2022-10-23T09:15:11;10.13;;;5.22;;
60372;SDS011;46216;52.220;5.134;2022-10-23T09:18:06;9.23;;;5.47;;
60372;SDS011;46216;52.220;5.134;2022-10-23T09:20:37;6.53;;;4.53;;
60372;SDS011;46216;52.220;5.134;2022-10-23T09:25:39;7.50;;;4.90;;
60372;SDS011;46216;52.220;5.134;2022-10-23T09:28:06;10.35;;;5.22;;
60372;SDS011;46216;52.220;5.134;2022-10-23T09:30:41;11.75;;;5.07;;
60372;SDS011;46216;52.220;5.134;2022-10-23T09:35:52;11.07;;;5.13;;
60372;SDS011;46216;52.220;5.134;2022-10-23T09:41:24;5.32;;;3.92;;
60372;SDS011;46216;52.220;5.134;2022-10-23T09:44:14;8.02;;;4.55;;
60372;SDS011;46216;52.220;5.134;2022-10-23T09:46:47;6.43;;;4.60;;
60372;SDS011;46216;52.220;5.134;2022-10-23T09:49:20;10.55;;;4.53;;
60372;SDS011;46216;52.220;5.134;2022-10-23T09:52:33;9.23;;;4.25;;
60372;SDS011;46216;52.220;5.134;2022-10-23T09:54:35;7.28;;;4.00;;
60372;SDS011;46216;52.220;5.134;2022-10-23T09:57:05;7.45;;;3.85;;
60372;SDS011;46216;52.220;5.134;2022-10-23T10:00:02;8.77;;;4.03;;
60372;SDS011;46216;52.220;5.134;2022-10-23T10:02:52;5.88;;;4.07;;
60372;SDS011;46216;52.220;5.134;2022-10-23T10:05:24;8.27;;;4.10;;
60372;SDS011;46216;52.220;5.134;2022-10-23T10:07:58;8.65;;;3.67;;
60372;SDS011;46216;52.220;5.134;2022-10-23T10:10:36;8.32;;;4.00;;
60372;SDS011;46216;52.220;5.134;2022-10-23T10:15:45;6.28;;;3.45;;
60372;SDS011;46216;52.220;5.134;2022-10-23T10:18:24;8.15;;;3.67;;
60372;SDS011;46216;52.220;5.134;2022-10-23T10:23:46;4.97;;;3.35;;
60372;SDS011;46216;52.220;5.134;2022-10-23T10:26:29;8.68;;;3.90;;
60372;SDS011;46216;52.220;5.134;2022-10-23T10:29:09;5.20;;;3.70;;
60372;SDS011;46216;52.220;5.134;2022-10-23T10:32:02;7.35;;;3.70;;
60372;SDS011;46216;52.220;5.134;2022-10-23T10:35:02;6.90;;;3.40;;
60372;SDS011;46216;52.220;5.134;2022-10-23T10:40:22;7.78;;;3.38;;
60372;SDS011;46216;52.220;5.134;2022-10-23T10:45:58;8.18;;;3.60;;
60372;SDS011;46216;52.220;5.134;2022-10-23T10:48:37;6.97;;;3.88;;
60372;SDS011;46216;52.220;5.134;2022-10-23T10:56:17;7.63;;;3.65;;
60372;SDS011;46216;52.220;5.134;2022-10-23T10:58:57;8.85;;;3.65;;
60372;SDS011;46216;52.220;5.134;2022-10-23T11:06:37;6.05;;;3.30;;
60372;SDS011;46216;52.220;5.134;2022-10-23T11:09:10;5.35;;;3.42;;
60372;SDS011;46216;52.220;5.134;2022-10-23T11:11:41;7.20;;;3.60;;
60372;SDS011;46216;52.220;5.134;2022-10-23T11:14:14;6.28;;;2.83;;
60372;SDS011;46216;52.220;5.134;2022-10-23T11:16:44;8.48;;;3.35;;
60372;SDS011;46216;52.220;5.134;2022-10-23T11:19:26;7.75;;;3.03;;
60372;SDS011;46216;52.220;5.134;2022-10-23T11:22:16;7.65;;;3.30;;
60372;SDS011;46216;52.220;5.134;2022-10-23T11:25:11;5.90;;;3.42;;
60372;SDS011;46216;52.220;5.134;2022-10-23T11:28:24;5.88;;;3.05;;
60372;SDS011;46216;52.220;5.134;2022-10-23T11:36:42;7.15;;;2.97;;
60372;SDS011;46216;52.220;5.134;2022-10-23T11:39:15;6.47;;;3.00;;
60372;SDS011;46216;52.220;5.134;2022-10-23T11:41:53;4.82;;;2.90;;
60372;SDS011;46216;52.220;5.134;2022-10-23T11:47:00;6.00;;;3.10;;
60372;SDS011;46216;52.220;5.134;2022-10-23T11:49:27;10.63;;;3.15;;
60372;SDS011;46216;52.220;5.134;2022-10-23T11:52:02;7.15;;;2.67;;
60372;SDS011;46216;52.220;5.134;2022-10-23T11:54:29;5.38;;;3.00;;
60372;SDS011;46216;52.220;5.134;2022-10-23T11:57:03;6.03;;;2.88;;
60372;SDS011;46216;52.220;5.134;2022-10-23T11:59:49;6.63;;;2.58;;
60372;SDS011;46216;52.220;5.134;2022-10-23T12:02:19;4.55;;;2.53;;
60372;SDS011;46216;52.220;5.134;2022-10-23T12:04:46;5.70;;;3.13;;
60372;SDS011;46216;52.220;5.134;2022-10-23T12:07:27;8.18;;;2.80;;
60372;SDS011;46216;52.220;5.134;2022-10-23T12:12:33;4.63;;;2.45;;
60372;SDS011;46216;52.220;5.134;2022-10-23T12:17:38;6.28;;;3.78;;
60372;SDS011;46216;52.220;5.134;2022-10-23T12:22:39;4.53;;;2.17;;
60372;SDS011;46216;52.220;5.134;2022-10-23T12:25:14;5.03;;;2.13;;
60372;SDS011;46216;52.220;5.134;2022-10-23T12:30:51;7.07;;;2.40;;
60372;SDS011;46216;52.220;5.134;2022-10-23T12:36:42;7.70;;;2.35;;
60372;SDS011;46216;52.220;5.134;2022-10-23T12:39:27;4.03;;;1.98;;
60372;SDS011;46216;52.220;5.134;2022-10-23T12:41:54;5.57;;;2.05;;
60372;SDS011;46216;52.220;5.134;2022-10-23T12:44:19;5.55;;;2.13;;
60372;SDS011;46216;52.220;5.134;2022-10-23T12:46:46;4.57;;;2.10;;
60372;SDS011;46216;52.220;5.134;2022-10-23T12:49:16;3.53;;;2.17;;
60372;SDS011;46216;52.220;5.134;2022-10-23T12:51:43;5.28;;;2.15;;
60372;SDS011;46216;52.220;5.134;2022-10-23T12:54:16;4.53;;;1.90;;
60372;SDS011;46216;52.220;5.134;2022-10-23T12:56:43;2.75;;;1.88;;
60372;SDS011;46216;52.220;5.134;2022-10-23T12:59:12;6.45;;;2.20;;
60372;SDS011;46216;52.220;5.134;2022-10-23T13:01:40;4.28;;;2.10;;
60372;SDS011;46216;52.220;5.134;2022-10-23T13:04:12;4.15;;;2.20;;
60372;SDS011;46216;52.220;5.134;2022-10-23T13:06:46;5.63;;;2.30;;
60372;SDS011;46216;52.220;5.134;2022-10-23T13:09:19;3.42;;;2.17;;
60372;SDS011;46216;52.220;5.134;2022-10-23T13:11:57;4.70;;;2.40;;
60372;SDS011;46216;52.220;5.134;2022-10-23T13:14:41;6.45;;;2.13;;
60372;SDS011;46216;52.220;5.134;2022-10-23T13:17:19;4.07;;;2.28;;
60372;SDS011;46216;52.220;5.134;2022-10-23T13:19:45;2.95;;;2.00;;
60372;SDS011;46216;52.220;5.134;2022-10-23T13:22:14;6.80;;;2.67;;
60372;SDS011;46216;52.220;5.134;2022-10-23T13:24:44;7.28;;;2.45;;
60372;SDS011;46216;52.220;5.134;2022-10-23T13:29:49;7.63;;;2.90;;
60372;SDS011;46216;52.220;5.134;2022-10-23T13:32:22;7.88;;;3.08;;
60372;SDS011;46216;52.220;5.134;2022-10-23T13:34:50;6.30;;;2.78;;
60372;SDS011;46216;52.220;5.134;2022-10-23T13:39:59;7.35;;;2.65;;
60372;SDS011;46216;52.220;5.134;2022-10-23T13:42:26;5.18;;;2.60;;
60372;SDS011;46216;52.220;5.134;2022-10-23T13:44:51;4.50;;;2.47;;
60372;SDS011;46216;52.220;5.134;2022-10-23T13:47:16;4.88;;;2.50;;
60372;SDS011;46216;52.220;5.134;2022-10-23T13:49:42;8.15;;;2.45;;
60372;SDS011;46216;52.220;5.134;2022-10-23T13:52:08;5.78;;;4.07;;
60372;SDS011;46216;52.220;5.134;2022-10-23T13:54:36;3.90;;;3.00;;
60372;SDS011;46216;52.220;5.134;2022-10-23T13:57:01;5.97;;;2.75;;
60372;SDS011;46216;52.220;5.134;2022-10-23T13:59:27;5.25;;;2.50;;
60372;SDS011;46216;52.220;5.134;2022-10-23T14:01:52;5.97;;;2.35;;
60372;SDS011;46216;52.220;5.134;2022-10-23T14:04:18;5.32;;;2.53;;
60372;SDS011;46216;52.220;5.134;2022-10-23T14:06:43;8.10;;;2.85;;
60372;SDS011;46216;52.220;5.134;2022-10-23T14:09:13;8.95;;;3.00;;
60372;SDS011;46216;52.220;5.134;2022-10-23T14:11:41;5.72;;;2.83;;
60372;SDS011;46216;52.220;5.134;2022-10-23T14:14:07;5.88;;;2.83;;
60372;SDS011;46216;52.220;5.134;2022-10-23T14:16:33;5.85;;;2.55;;
60372;SDS011;46216;52.220;5.134;2022-10-23T14:18:58;7.80;;;2.90;;
60372;SDS011;46216;52.220;5.134;2022-10-23T14:21:23;10.05;;;3.15;;
60372;SDS011;46216;52.220;5.134;2022-10-23T14:23:50;4.85;;;2.85;;
60372;SDS011;46216;52.220;5.134;2022-10-23T14:26:17;7.00;;;2.55;;
60372;SDS011;46216;52.220;5.134;2022-10-23T14:28:45;5.57;;;2.92;;
60372;SDS011;46216;52.220;5.134;2022-10-23T14:31:14;4.97;;;2.53;;
60372;SDS011;46216;52.220;5.134;2022-10-23T14:33:42;4.70;;;2.90;;
60372;SDS011;46216;52.220;5.134;2022-10-23T14:36:08;4.78;;;2.72;;
60372;SDS011;46216;52.220;5.134;2022-10-23T14:38:34;3.63;;;2.53;;
60372;SDS011;46216;52.220;5.134;2022-10-23T14:40:59;4.65;;;2.90;;
60372;SDS011;46216;52.220;5.134;2022-10-23T14:43:25;4.88;;;3.00;;
60372;SDS011;46216;52.220;5.134;2022-10-23T14:45:50;6.72;;;3.03;;
60372;SDS011;46216;52.220;5.134;2022-10-23T14:48:16;6.10;;;2.88;;
60372;SDS011;46216;52.220;5.134;2022-10-23T14:50:42;7.38;;;3.00;;
60372;SDS011;46216;52.220;5.134;2022-10-23T14:53:09;7.72;;;3.05;;
60372;SDS011;46216;52.220;5.134;2022-10-23T14:55:35;5.82;;;3.10;;
60372;SDS011;46216;52.220;5.134;2022-10-23T14:58:03;5.63;;;2.97;;
60372;SDS011;46216;52.220;5.134;2022-10-23T15:00:28;6.57;;;3.03;;
60372;SDS011;46216;52.220;5.134;2022-10-23T15:02:54;6.82;;;3.15;;
60372;SDS011;46216;52.220;5.134;2022-10-23T15:05:19;7.93;;;3.35;;
60372;SDS011;46216;52.220;5.134;2022-10-23T15:07:45;5.07;;;3.13;;
60372;SDS011;46216;52.220;5.134;2022-10-23T15:10:10;6.22;;;3.20;;
60372;SDS011;46216;52.220;5.134;2022-10-23T15:12:35;5.68;;;3.03;;
60372;SDS011;46216;52.220;5.134;2022-10-23T15:15:02;7.68;;;3.13;;
60372;SDS011;46216;52.220;5.134;2022-10-23T15:17:28;5.70;;;2.90;;
60372;SDS011;46216;52.220;5.134;2022-10-23T15:19:53;6.13;;;3.10;;
60372;SDS011;46216;52.220;5.134;2022-10-23T15:22:18;5.90;;;3.20;;
60372;SDS011;46216;52.220;5.134;2022-10-23T15:24:44;9.68;;;3.30;;
60372;SDS011;46216;52.220;5.134;2022-10-23T15:27:11;9.75;;;3.05;;
60372;SDS011;46216;52.220;5.134;2022-10-23T15:29:37;8.13;;;3.17;;
60372;SDS011;46216;52.220;5.134;2022-10-23T15:32:02;5.50;;;3.35;;
60372;SDS011;46216;52.220;5.134;2022-10-23T15:34:29;5.15;;;3.10;;
60372;SDS011;46216;52.220;5.134;2022-10-23T15:36:56;5.25;;;3.05;;
60372;SDS011;46216;52.220;5.134;2022-10-23T15:39:23;7.13;;;3.20;;
60372;SDS011;46216;52.220;5.134;2022-10-23T15:41:50;7.50;;;2.88;;
60372;SDS011;46216;52.220;5.134;2022-10-23T15:44:18;6.03;;;2.85;;
60372;SDS011;46216;52.220;5.134;2022-10-23T15:46:44;5.15;;;3.15;;
60372;SDS011;46216;52.220;5.134;2022-10-23T15:49:10;6.60;;;3.20;;
60372;SDS011;46216;52.220;5.134;2022-10-23T15:51:36;5.20;;;3.10;;
60372;SDS011;46216;52.220;5.134;2022-10-23T15:54:03;5.15;;;2.80;;
60372;SDS011;46216;52.220;5.134;2022-10-23T15:56:32;8.77;;;3.00;;
60372;SDS011;46216;52.220;5.134;2022-10-23T15:58:58;4.78;;;3.15;;
60372;SDS011;46216;52.220;5.134;2022-10-23T16:01:24;5.05;;;3.33;;
60372;SDS011;46216;52.220;5.134;2022-10-23T16:03:50;4.40;;;3.10;;
60372;SDS011;46216;52.220;5.134;2022-10-23T16:06:16;6.88;;;2.78;;
60372;SDS011;46216;52.220;5.134;2022-10-23T16:08:43;7.07;;;3.03;;
60372;SDS011;46216;52.220;5.134;2022-10-23T16:11:13;5.15;;;2.90;;
60372;SDS011;46216;52.220;5.134;2022-10-23T16:13:43;6.07;;;3.08;;
60372;SDS011;46216;52.220;5.134;2022-10-23T16:16:09;7.43;;;3.17;;
60372;SDS011;46216;52.220;5.134;2022-10-23T16:18:35;5.65;;;3.00;;
60372;SDS011;46216;52.220;5.134;2022-10-23T16:21:01;5.43;;;3.38;;